Time;durP1;ratioP1;P1;durP2;ratioP2;P2;SDS_P1;SDS_P2;PMS_P1;PMS_P2;Temp;Humidity;BMP_temperature;BMP_pressure;BME280_temperature;BME280_humidity;BME280_pressure;Samples;Min_cycle;Max_cycle;Signal;HPM_P1;HPM_P2
2022/09/08 00:02:41;;;;;;;;;;;;;;;24.56;55.65;100201.84;5378721;32;33577;-76
2022/09/08 00:05:48;;;;;;;;;;;;;;;24.08;56.94;100186.88;5387012;32;34119;-70
2022/09/08 00:08:53;;;;;;;;;;;;;;;23.80;58.20;100201.34;5374996;32;45870;-69
2022/09/08 00:11:56;;;;;;;;;;;;;;;23.68;58.92;100195.31;5398915;32;33700;-76
2022/09/08 00:14:58;;;;;;;;;;;;;;;23.71;58.74;100190.50;5373400;32;33767;-70
2022/09/08 00:18:00;;;;;;;;;;;;;;;23.19;60.59;100197.34;5389061;32;33698;-76
2022/09/08 00:21:01;;;;;;;;;;;;;;;22.55;62.88;100193.44;5379775;32;34312;-75
2022/09/08 00:24:03;;;;;;;;;;;;;;;22.86;61.55;100185.22;5365340;32;33704;-76
2022/09/08 00:27:05;;;;;;;;;;;;;;;22.48;62.55;100186.97;5390606;32;33732;-69
2022/09/08 00:30:07;;;;;;;;;;;;;;;23.44;59.71;100166.31;5376287;32;33740;-74
2022/09/08 00:33:09;;;;;;;;;;;;;;;23.97;57.61;100171.03;5391191;32;33621;-75
2022/09/08 00:36:14;;;;;;;;;;;;;;;23.83;57.53;100167.00;5381136;32;33440;-76
2022/09/08 00:39:16;;;;;;;;;;;;;;;22.54;62.80;100169.47;5378132;32;33939;-71
2022/09/08 00:42:18;;;;;;;;;;;;;;;22.84;62.03;100163.09;5378482;32;45147;-69
2022/09/08 00:45:20;;;;;;;;;;;;;;;23.29;60.39;100155.22;5379700;32;33708;-75
2022/09/08 00:48:22;;;;;;;;;;;;;;;23.75;58.64;100154.31;5387690;32;34185;-75
2022/09/08 00:51:24;;;;;;;;;;;;;;;23.89;58.18;100162.84;5375820;32;33888;-70
2022/09/08 00:54:26;;;;;;;;;;;;;;;22.30;63.96;100153.84;5378879;32;33107;-76
2022/09/08 00:57:28;;;;;;;;;;;;;;;22.12;65.34;100149.19;5357174;32;34104;-75
2022/09/08 01:00:31;;;;;;;;;;;;;;;22.11;65.84;100157.34;5394036;32;33842;-75
2022/09/08 01:03:33;;;;;;;;;;;;;;;22.78;63.34;100150.25;5376827;32;34074;-74
2022/09/08 01:13:37;;;;;;;;;;;;;;;22.73;63.27;100157.88;5361670;32;33517;-74
2022/09/08 01:16:40;;;;;;;;;;;;;;;23.04;62.02;100159.41;5395090;32;33431;-75
2022/09/08 01:19:42;;;;;;;;;;;;;;;23.57;59.51;100158.78;5378724;32;33575;-75
2022/09/08 01:22:56;;;;;;;;;;;;;;;23.42;59.90;100152.22;5362073;32;33545;-76
2022/09/08 01:26:08;;;;;;;;;;;;;;;22.42;63.50;100152.72;5394415;32;33781;-75
2022/09/08 01:29:10;;;;;;;;;;;;;;;22.20;64.87;100152.97;5361979;32;32666;-70
2022/09/08 01:32:12;;;;;;;;;;;;;;;22.40;64.12;100160.03;5392765;32;33653;-74
2022/09/08 01:35:28;;;;;;;;;;;;;;;22.39;64.05;100148.47;5362205;32;33442;-69
2022/09/08 01:38:30;;;;;;;;;;;;;;;22.24;64.70;100151.72;5370576;32;33820;-70
2022/09/08 01:41:32;;;;;;;;;;;;;;;21.72;67.09;100143.88;5396372;32;33813;-75
2022/09/08 01:44:33;;;;;;;;;;;;;;;22.01;66.20;100149.28;5373316;32;33155;-74
2022/09/08 01:47:35;;;;;;;;;;;;;;;22.32;64.58;100144.69;5392823;32;34155;-69
2022/09/08 01:50:37;;;;;;;;;;;;;;;21.93;66.02;100157.16;5365826;32;33646;-75
2022/09/08 01:53:39;;;;;;;;;;;;;;;21.58;67.71;100152.28;5384242;32;33210;-69
2022/09/08 01:56:41;;;;;;;;;;;;;;;21.86;66.24;100156.84;5345699;32;32903;-74
2022/09/08 01:59:43;;;;;;;;;;;;;;;22.68;63.06;100163.69;5376558;32;33614;-73
2022/09/08 02:02:45;;;;;;;;;;;;;;;22.45;62.56;100147.06;5392729;32;33264;-75
2022/09/08 02:05:47;;;;;;;;;;;;;;;21.74;66.06;100139.22;5380234;32;36586;-74
2022/09/08 02:08:52;;;;;;;;;;;;;;;21.93;65.14;100141.09;5388734;32;34069;-70
2022/09/08 02:11:53;;;;;;;;;;;;;;;22.89;61.49;100144.78;5378194;32;34180;-75
2022/09/08 02:14:55;;;;;;;;;;;;;;;22.47;62.65;100149.59;5394154;32;33360;-75
2022/09/08 02:17:57;;;;;;;;;;;;;;;22.90;61.25;100143.78;5375885;32;33562;-71
2022/09/08 02:21:00;;;;;;;;;;;;;;;22.47;63.03;100149.59;5375620;32;33737;-70
2022/09/08 02:24:03;;;;;;;;;;;;;;;22.94;61.16;100143.38;5390624;32;33916;-73
2022/09/08 02:27:05;;;;;;;;;;;;;;;22.71;61.69;100140.12;5379448;32;33257;-75
2022/09/08 02:30:07;;;;;;;;;;;;;;;22.06;64.65;100147.03;5377569;32;33116;-71
2022/09/08 02:33:10;;;;;;;;;;;;;;;22.62;62.41;100149.03;5377601;32;32753;-69
2022/09/08 02:36:12;;;;;;;;;;;;;;;21.93;64.89;100153.63;5379668;32;34212;-69
2022/09/08 02:39:17;;;;;;;;;;;;;;;22.60;62.98;100147.47;5373601;32;33871;-69
2022/09/08 02:42:19;;;;;;;;;;;;;;;22.98;61.18;100149.25;5368413;32;46905;-75
2022/09/08 02:45:21;;;;;;;;;;;;;;;22.08;63.62;100155.75;5394767;32;34115;-75
2022/09/08 02:48:24;;;;;;;;;;;;;;;21.85;64.15;100149.81;5377246;32;33555;-70
2022/09/08 02:51:25;;;;;;;;;;;;;;;21.28;67.06;100145.97;5366117;32;33804;-75
2022/09/08 02:54:27;;;;;;;;;;;;;;;21.47;66.78;100150.56;5365843;32;35290;-76
2022/09/08 02:57:29;;;;;;;;;;;;;;;21.49;67.19;100145.06;5365926;32;34417;-75
2022/09/08 03:00:32;;;;;;;;;;;;;;;22.23;64.30;100140.19;5384149;32;33652;-70
2022/09/08 03:03:34;;;;;;;;;;;;;;;21.72;65.84;100138.53;5373793;32;33220;-70
2022/09/08 03:06:37;;;;;;;;;;;;;;;21.35;67.86;100140.94;5396295;32;32884;-76
2022/09/08 03:09:39;;;;;;;;;;;;;;;22.41;63.98;100135.81;5363205;32;32908;-73
2022/09/08 03:12:40;;;;;;;;;;;;;;;22.90;61.78;100138.44;5393438;32;33656;-69
2022/09/08 03:15:42;;;;;;;;;;;;;;;22.61;62.33;100142.00;5376620;32;31696;-72
2022/09/08 03:18:45;;;;;;;;;;;;;;;22.27;63.91;100133.53;5371432;32;33731;-70
2022/09/08 03:21:46;;;;;;;;;;;;;;;21.77;65.53;100132.78;5386509;32;32695;-70
2022/09/08 03:24:48;;;;;;;;;;;;;;;21.98;64.91;100125.47;5375059;32;47745;-75
2022/09/08 03:27:50;;;;;;;;;;;;;;;21.31;67.65;100134.16;5393474;32;34256;-69
2022/09/08 03:30:52;;;;;;;;;;;;;;;21.99;65.12;100129.00;5374180;32;33044;-74
2022/09/08 03:33:55;;;;;;;;;;;;;;;21.89;64.81;100123.62;5397078;32;33956;-70
2022/09/08 03:36:57;;;;;;;;;;;;;;;21.80;65.72;100124.47;5380703;32;33863;-75
2022/09/08 03:39:58;;;;;;;;;;;;;;;22.29;63.78;100120.03;5387919;32;33497;-75
2022/09/08 03:43:01;;;;;;;;;;;;;;;22.27;63.59;100133.53;5370685;32;34270;-69
2022/09/08 03:46:09;;;;;;;;;;;;;;;22.52;62.60;100132.13;5376794;32;34290;-73
2022/09/08 03:49:11;;;;;;;;;;;;;;;22.75;61.12;100126.47;5393111;32;32776;-71
2022/09/08 03:52:13;;;;;;;;;;;;;;;21.87;64.20;100144.31;5376790;32;33676;-76
2022/09/08 03:55:15;;;;;;;;;;;;;;;21.76;65.48;100155.13;5366160;32;33153;-73
2022/09/08 03:58:17;;;;;;;;;;;;;;;22.11;63.43;100152.00;5366924;32;33635;-69
2022/09/08 04:01:18;;;;;;;;;;;;;;;21.22;67.13;100161.69;5381806;32;45336;-70
2022/09/08 04:04:22;;;;;;;;;;;;;;;20.99;67.92;100163.66;5373267;32;33762;-75
2022/09/08 04:07:25;;;;;;;;;;;;;;;20.88;68.16;100164.59;5379727;32;33931;-75
2022/09/08 04:10:27;;;;;;;;;;;;;;;21.32;65.95;100160.78;5379286;32;34979;-69
2022/09/08 04:13:29;;;;;;;;;;;;;;;21.75;64.11;100158.78;5374085;32;34485;-69
2022/09/08 04:16:31;;;;;;;;;;;;;;;22.47;61.10;100161.16;5393405;32;33956;-75
2022/09/08 04:19:33;;;;;;;;;;;;;;;22.29;61.51;100168.22;5362626;32;32975;-69
2022/09/08 04:22:35;;;;;;;;;;;;;;;22.35;60.93;100179.22;5379478;32;33549;-70
2022/09/08 04:25:37;;;;;;;;;;;;;;;22.12;61.58;100188.47;5387283;32;35817;-70
2022/09/08 04:28:42;;;;;;;;;;;;;;;21.27;64.69;100184.34;5372651;32;33478;-75
2022/09/08 04:31:44;;;;;;;;;;;;;;;21.30;64.87;100180.59;5381450;32;33829;-76
2022/09/08 04:34:49;;;;;;;;;;;;;;;20.88;66.70;100171.75;5374586;32;32886;-69
2022/09/08 04:37:51;;;;;;;;;;;;;;;21.29;65.23;100161.03;5381941;32;46129;-69
2022/09/08 04:40:53;;;;;;;;;;;;;;;21.53;64.20;100146.50;5380479;32;33692;-75
2022/09/08 04:43:56;;;;;;;;;;;;;;;21.21;64.96;100146.63;5374290;32;34015;-70
2022/09/08 04:46:58;;;;;;;;;;;;;;;21.69;63.65;100145.97;5396281;32;33651;-77
2022/09/08 04:49:59;;;;;;;;;;;;;;;22.50;60.39;100157.38;5379717;32;33638;-69
2022/09/08 04:53:01;;;;;;;;;;;;;;;22.00;62.28;100142.22;5390605;32;33081;-70
2022/09/08 04:56:04;;;;;;;;;;;;;;;22.72;59.66;100149.00;5341920;32;33946;-74
2022/09/08 04:59:06;;;;;;;;;;;;;;;22.93;58.83;100157.75;5388826;32;33573;-69
2022/09/08 05:02:07;;;;;;;;;;;;;;;22.60;60.02;100159.03;5381509;32;34307;-71
2022/09/08 05:05:09;;;;;;;;;;;;;;;21.24;65.34;100171.25;5369829;32;34026;-75
2022/09/08 05:08:11;;;;;;;;;;;;;;;21.77;63.74;100168.41;5391053;32;33445;-74
2022/09/08 05:11:13;;;;;;;;;;;;;;;22.01;62.66;100169.84;5379143;32;32949;-70
2022/09/08 05:14:15;;;;;;;;;;;;;;;22.40;61.15;100160.03;5389670;32;33014;-70
2022/09/08 05:17:17;;;;;;;;;;;;;;;22.95;59.21;100171.00;5369883;32;36509;-70
2022/09/08 05:20:24;;;;;;;;;;;;;;;24.37;53.55;100169.75;5382622;32;33959;-76
2022/09/08 05:23:26;;;;;;;;;;;;;;;24.31;53.91;100172.03;5375573;32;33906;-76
2022/09/08 05:26:28;;;;;;;;;;;;;;;24.27;52.82;100175.16;5364649;32;35963;-70
2022/09/08 05:29:29;;;;;;;;;;;;;;;23.93;53.67;100173.16;5386766;32;33510;-70
2022/09/08 05:32:32;;;;;;;;;;;;;;;23.65;53.96;100172.31;5380586;32;32921;-75
2022/09/08 05:35:35;;;;;;;;;;;;;;;22.92;55.22;100176.63;5374981;32;33295;-75
2022/09/08 05:38:37;;;;;;;;;;;;;;;23.14;54.98;100162.91;5356810;32;32975;-69
2022/09/08 05:41:39;;;;;;;;;;;;;;;22.68;56.29;100175.25;5369511;32;34535;-77
2022/09/08 05:44:41;;;;;;;;;;;;;;;24.55;50.97;100167.91;5365664;32;34227;-76
2022/09/08 05:47:43;;;;;;;;;;;;;;;23.35;54.54;100175.25;5376073;32;32839;-74
2022/09/08 05:50:45;;;;;;;;;;;;;;;24.12;53.28;100180.22;5376963;32;34328;-77
2022/09/08 05:53:47;;;;;;;;;;;;;;;23.50;54.16;100171.91;5361198;32;34949;-79
2022/09/08 05:56:49;;;;;;;;;;;;;;;23.33;54.73;100159.31;5348613;32;33245;-75
2022/09/08 05:59:51;;;;;;;;;;;;;;;24.66;50.68;100164.97;5338705;32;33307;-81
2022/09/08 06:02:53;;;;;;;;;;;;;;;24.68;49.70;100162.13;5366004;32;33486;-78
2022/09/08 06:05:55;;;;;;;;;;;;;;;26.08;46.49;100158.19;5362134;32;34766;-75
2022/09/08 06:09:00;;;;;;;;;;;;;;;26.39;44.66;100158.34;5359131;32;34295;-77
2022/09/08 06:12:02;;;;;;;;;;;;;;;25.64;46.68;100160.22;5374343;32;33057;-78
2022/09/08 06:15:05;;;;;;;;;;;;;;;25.25;48.14;100168.78;5360331;32;33838;-78
2022/09/08 06:18:07;;;;;;;;;;;;;;;25.29;47.42;100162.06;5376199;32;32853;-78
2022/09/08 06:21:13;;;;;;;;;;;;;;;27.34;42.49;100145.16;5368627;32;32949;-75
2022/09/08 06:24:15;;;;;;;;;;;;;;;27.12;42.90;100141.34;5368081;32;33861;-80
2022/09/08 06:27:20;;;;;;;;;;;;;;;26.50;44.57;100146.44;5372815;32;36055;-80
2022/09/08 06:30:22;;;;;;;;;;;;;;;26.35;44.15;100142.72;5366364;32;44574;-72
2022/09/08 06:33:39;;;;;;;;;;;;;;;28.47;39.24;100137.47;5383100;32;33722;-82
2022/09/08 06:36:41;;;;;;;;;;;;;;;28.27;39.65;100142.50;5374778;32;34116;-86
2022/09/08 06:39:44;;;;;;;;;;;;;;;27.38;41.26;100137.56;5386978;32;34248;-79
2022/09/08 06:42:49;;;;;;;;;;;;;;;29.23;36.89;100132.81;5360921;32;33008;-79
2022/09/08 06:45:53;;;;;;;;;;;;;;;29.01;37.67;100140.00;5369499;32;43208;-80
2022/09/08 06:48:55;;;;;;;;;;;;;;;28.20;39.47;100127.16;5382488;32;33088;-75
2022/09/08 06:52:00;;;;;;;;;;;;;;;27.52;40.74;100124.16;5355668;32;34356;-75
2022/09/08 06:55:11;;;;;;;;;;;;;;;28.05;40.18;100114.44;5364324;32;33064;-81
2022/09/08 06:58:20;;;;;;;;;;;;;;;29.40;37.27;100112.66;5349432;32;31815;-89
2022/09/08 07:01:28;;;;;;;;;;;;;;;28.25;39.25;100113.94;5375543;32;44972;-90
2022/09/08 07:04:56;;;;;;;;;;;;;;;28.45;39.67;100112.44;5371240;32;31463;-89
2022/09/08 07:07:58;;;;;;;;;;;;;;;27.64;40.77;100104.87;5351660;32;33015;-87
2022/09/08 07:11:03;;;;;;;;;;;;;;;27.36;41.83;100094.53;5380574;32;33052;-77
2022/09/08 07:14:05;;;;;;;;;;;;;;;28.38;39.80;100106.09;5365297;32;33650;-87
2022/09/08 07:17:40;;;;;;;;;;;;;;;30.40;36.01;100092.09;5379473;32;33107;-77
2022/09/08 07:20:45;;;;;;;;;;;;;;;28.66;39.22;100100.09;5361858;32;32887;-78
2022/09/08 07:23:47;;;;;;;;;;;;;;;29.17;38.06;100095.69;5352653;32;35005;-86
2022/09/08 07:26:52;;;;;;;;;;;;;;;29.92;36.66;100092.66;5373058;32;34089;-81
2022/09/08 07:29:55;;;;;;;;;;;;;;;30.56;35.86;100099.13;5366004;32;33152;-80
2022/09/08 07:33:01;;;;;;;;;;;;;;;28.79;38.88;100101.16;5380531;32;34600;-88
2022/09/08 07:36:20;;;;;;;;;;;;;;;28.27;40.06;100103.78;5367893;32;33006;-77
2022/09/08 07:39:28;;;;;;;;;;;;;;;31.68;33.76;100079.94;5376691;32;45059;-80
2022/09/08 07:42:31;;;;;;;;;;;;;;;30.15;35.95;100095.22;5377628;32;33114;-79
2022/09/08 07:45:51;;;;;;;;;;;;;;;30.27;36.09;100095.56;5358438;32;34495;-80
2022/09/08 07:48:57;;;;;;;;;;;;;;;30.48;35.93;100105.53;5358436;32;44111;-80
2022/09/08 07:52:15;;;;;;;;;;;;;;;32.68;31.78;100100.81;5376228;32;34631;-79
2022/09/08 07:55:16;;;;;;;;;;;;;;;29.25;38.07;100113.72;5357817;32;33232;-79
2022/09/08 07:58:21;;;;;;;;;;;;;;;31.36;33.83;100106.75;5368329;32;44679;-79
2022/09/08 08:01:32;;;;;;;;;;;;;;;30.01;36.54;100109.62;5366001;32;32950;-81
2022/09/08 08:04:41;;;;;;;;;;;;;;;31.05;34.77;100101.78;5387045;32;34415;-79
2022/09/08 08:08:04;;;;;;;;;;;;;;;30.18;35.87;100104.84;5354300;32;34020;-84
2022/09/08 08:11:06;;;;;;;;;;;;;;;30.56;35.50;100109.97;5349825;32;32704;-82
2022/09/08 08:14:16;;;;;;;;;;;;;;;30.80;34.81;100123.13;5376102;32;34450;-79
2022/09/08 08:17:35;;;;;;;;;;;;;;;32.48;31.42;100125.31;5367898;32;44983;-80
2022/09/08 08:20:56;;;;;;;;;;;;;;;34.30;28.76;100113.41;5379221;32;32935;-80
2022/09/08 08:24:01;;;;;;;;;;;;;;;32.16;32.88;100126.06;5373694;32;35564;-77
2022/09/08 08:27:09;;;;;;;;;;;;;;;31.84;33.37;100123.06;5372858;32;33211;-79
2022/09/08 08:30:19;;;;;;;;;;;;;;;31.88;33.02;100115.34;5367240;32;33987;-80
2022/09/08 08:33:22;;;;;;;;;;;;;;;32.52;32.14;100121.09;5356902;32;44519;-76
2022/09/08 08:36:24;;;;;;;;;;;;;;;33.79;30.02;100117.06;5383914;32;33173;-82
2022/09/08 08:39:26;;;;;;;;;;;;;;;34.92;28.25;100108.09;5352479;32;33685;-76
2022/09/08 08:42:33;;;;;;;;;;;;;;;34.75;28.62;100108.63;5373098;32;32948;-74
2022/09/08 08:45:41;;;;;;;;;;;;;;;35.67;27.14;100107.84;5369511;32;33689;-71
2022/09/08 08:48:55;;;;;;;;;;;;;;;33.32;30.55;100105.50;5368656;32;33006;-81
2022/09/08 08:52:00;;;;;;;;;;;;;;;34.55;28.75;100107.97;5384848;32;33669;-79
2022/09/08 08:55:20;;;;;;;;;;;;;;;33.58;30.31;100109.22;5351674;32;32912;-78
2022/09/08 08:58:41;;;;;;;;;;;;;;;34.31;29.21;100104.16;5362755;32;44541;-77
2022/09/08 09:01:58;;;;;;;;;;;;;;;34.53;28.65;100106.56;5389226;32;32926;-71
2022/09/08 09:05:19;;;;;;;;;;;;;;;37.96;23.86;100094.09;5362720;32;33553;-72
2022/09/08 09:08:40;;;;;;;;;;;;;;;36.30;25.93;100085.47;5374587;32;44631;-78
2022/09/08 09:11:45;;;;;;;;;;;;;;;36.27;25.95;100080.50;5372012;32;34362;-83
2022/09/08 09:15:05;;;;;;;;;;;;;;;37.74;24.09;100065.66;5336626;32;943850;-72
2022/09/08 09:18:30;;;;;;;;;;;;;;;35.66;26.76;100073.38;5372753;32;35926;-81
2022/09/08 09:21:38;;;;;;;;;;;;;;;37.74;24.34;100049.22;5368078;32;34339;-82
2022/09/08 09:24:50;;;;;;;;;;;;;;;34.62;29.04;100054.19;5365146;32;34018;-86
2022/09/08 09:27:55;;;;;;;;;;;;;;;34.98;28.33;100050.69;5378573;32;44460;-75
2022/09/08 09:31:03;;;;;;;;;;;;;;;38.54;23.33;100040.75;5368390;32;35464;-79
2022/09/08 09:34:06;;;;;;;;;;;;;;;36.30;26.00;100044.44;5377303;32;31909;-80
2022/09/08 09:37:24;;;;;;;;;;;;;;;37.40;24.91;100040.91;5366172;32;35351;-75
2022/09/08 09:40:32;;;;;;;;;;;;;;;35.19;27.96;100043.09;5374923;32;44581;-80
2022/09/08 09:43:37;;;;;;;;;;;;;;;35.25;27.94;100047.63;5368400;32;33166;-74
2022/09/08 09:46:57;;;;;;;;;;;;;;;35.62;27.52;100040.22;5362444;32;35265;-70
2022/09/08 09:50:02;;;;;;;;;;;;;;;35.30;28.29;100041.50;5381918;32;34275;-81
2022/09/08 09:53:10;;;;;;;;;;;;;;;37.29;25.18;100026.16;5367364;32;34297;-71
2022/09/08 09:56:46;;;;;;;;;;;;;;;36.42;26.50;100031.62;5347977;32;34509;-83
2022/09/08 09:59:57;;;;;;;;;;;;;;;38.09;24.13;100016.13;5371391;32;44558;-69
2022/09/08 10:03:02;;;;;;;;;;;;;;;35.93;27.05;100020.00;5366134;32;33011;-69
2022/09/08 10:06:24;;;;;;;;;;;;;;;35.87;27.12;100015.44;5379748;32;32630;-79
2022/09/08 10:09:34;;;;;;;;;;;;;;;37.90;24.47;99999.09;5371241;32;44644;-78
2022/09/08 10:13:04;;;;;;;;;;;;;;;38.99;22.71;99998.53;5354048;32;32807;-81
2022/09/08 10:16:26;;;;;;;;;;;;;;;39.35;22.23;99999.78;5377199;32;33085;-70
2022/09/08 10:19:31;;;;;;;;;;;;;;;39.65;21.88;99987.47;5356438;32;34318;-69
2022/09/08 10:22:48;;;;;;;;;;;;;;;38.33;23.09;99995.69;5382873;32;34399;-71
2022/09/08 10:26:05;;;;;;;;;;;;;;;37.74;23.95;99989.72;5375283;32;46160;-82
2022/09/08 10:29:16;;;;;;;;;;;;;;;37.57;24.13;99986.16;5362395;32;34107;-83
2022/09/08 10:32:21;;;;;;;;;;;;;;;36.02;26.19;99999.47;5387742;32;44626;-71
2022/09/08 10:35:31;;;;;;;;;;;;;;;33.26;31.08;99994.72;5364379;32;32995;-70
2022/09/08 10:38:39;;;;;;;;;;;;;;;34.68;28.69;99984.22;5360797;32;34233;-83
2022/09/08 10:41:59;;;;;;;;;;;;;;;33.31;31.44;99991.34;5371578;32;33587;-71
2022/09/08 10:45:23;;;;;;;;;;;;;;;33.34;31.14;99988.16;5363215;32;33638;-77
2022/09/08 10:48:27;;;;;;;;;;;;;;;32.83;32.09;99981.66;5365917;32;44410;-78
2022/09/08 10:51:29;;;;;;;;;;;;;;;33.15;31.78;99987.22;5373604;32;32922;-83
2022/09/08 10:54:38;;;;;;;;;;;;;;;32.13;34.03;100004.97;5375776;32;32809;-85
2022/09/08 10:57:46;;;;;;;;;;;;;;;31.99;33.50;100006.87;5353433;32;33069;-79
2022/09/08 11:00:48;;;;;;;;;;;;;;;32.01;34.06;100001.22;5362788;32;46334;-84
2022/09/08 11:03:56;;;;;;;;;;;;;;;31.18;35.01;99987.84;5375830;32;33018;-88
2022/09/08 11:07:20;;;;;;;;;;;;;;;31.31;34.86;99994.41;5372153;32;33738;-78
2022/09/08 11:10:28;;;;;;;;;;;;;;;30.74;36.04;99991.00;5373633;32;44703;-70
2022/09/08 11:13:51;;;;;;;;;;;;;;;32.17;33.89;99989.94;5363955;32;33204;-68
2022/09/08 11:17:14;;;;;;;;;;;;;;;32.55;32.97;99979.25;5374957;32;44619;-68
2022/09/08 11:20:16;;;;;;;;;;;;;;;32.52;33.09;99976.94;5374369;32;33886;-74
2022/09/08 11:23:37;;;;;;;;;;;;;;;33.07;32.64;99977.41;5371910;32;44353;-73
2022/09/08 11:26:45;;;;;;;;;;;;;;;32.44;32.94;99965.47;5374814;32;33007;-68
2022/09/08 11:30:03;;;;;;;;;;;;;;;33.10;31.65;99968.84;5379393;32;31485;-71
2022/09/08 11:33:11;;;;;;;;;;;;;;;34.68;29.39;99974.12;5344564;32;33000;-73
2022/09/08 11:36:32;;;;;;;;;;;;;;;34.91;28.87;99978.91;5387262;32;33116;-74
2022/09/08 11:39:56;;;;;;;;;;;;;;;36.38;26.40;99978.41;5358147;32;33437;-75
2022/09/08 11:42:58;;;;;;;;;;;;;;;36.82;25.50;99967.91;5357823;32;34044;-70
2022/09/08 11:46:20;;;;;;;;;;;;;;;35.00;28.30;99985.75;5376979;32;34607;-70
2022/09/08 11:49:36;;;;;;;;;;;;;;;34.25;29.40;99992.38;5360757;32;44708;-72
2022/09/08 11:53:04;;;;;;;;;;;;;;;34.66;28.85;99976.25;5363013;32;33221;-71
2022/09/08 11:56:35;;;;;;;;;;;;;;;33.75;30.20;99973.25;5353442;32;44969;-71
2022/09/08 11:59:40;;;;;;;;;;;;;;;33.01;30.81;99963.84;5370402;32;34150;-75
2022/09/08 12:03:01;;;;;;;;;;;;;;;32.44;32.25;99962.72;5377242;32;34308;-68
2022/09/08 12:06:22;;;;;;;;;;;;;;;33.19;30.88;99961.25;5362429;32;31321;-73
2022/09/08 12:09:53;;;;;;;;;;;;;;;33.63;30.03;99965.81;5358837;32;33001;-71
2022/09/08 12:13:15;;;;;;;;;;;;;;;33.55;30.19;99976.13;5382797;32;44315;-71
2022/09/08 12:16:23;;;;;;;;;;;;;;;33.48;29.85;99967.16;5336330;32;33232;-72
2022/09/08 12:19:34;;;;;;;;;;;;;;;34.16;28.90;99959.12;5359398;32;42698;-73
2022/09/08 12:22:42;;;;;;;;;;;;;;;34.78;28.10;99961.84;5371238;32;33605;-77
2022/09/08 12:26:03;;;;;;;;;;;;;;;35.72;26.26;99952.19;5370027;32;31960;-72
2022/09/08 12:29:24;;;;;;;;;;;;;;;34.64;27.58;99944.78;5377061;32;33715;-72
2022/09/08 12:32:35;;;;;;;;;;;;;;;33.96;29.01;99933.94;5360358;32;34344;-70
2022/09/08 12:35:50;;;;;;;;;;;;;;;34.02;29.05;99938.50;5371369;32;33193;-72
2022/09/08 12:39:15;;;;;;;;;;;;;;;34.51;27.86;99939.47;5364988;32;44771;-70
2022/09/08 12:42:36;;;;;;;;;;;;;;;33.97;29.00;99943.78;5334615;32;44932;-75
2022/09/08 12:45:57;;;;;;;;;;;;;;;34.51;27.97;99926.66;5380741;32;32926;-82
2022/09/08 12:49:18;;;;;;;;;;;;;;;34.09;28.44;99936.53;5376141;32;33747;-71
2022/09/08 12:52:39;;;;;;;;;;;;;;;33.49;29.33;99915.22;5359313;32;44674;-87
2022/09/08 12:56:00;;;;;;;;;;;;;;;33.34;29.57;99910.03;5361406;32;33147;-70
2022/09/08 12:59:05;;;;;;;;;;;;;;;33.70;28.73;99915.88;5363859;32;32094;-71
2022/09/08 13:02:26;;;;;;;;;;;;;;;34.27;27.86;99905.75;5337667;32;33696;-73
2022/09/08 13:05:29;;;;;;;;;;;;;;;33.83;28.70;99911.16;5371438;32;35441;-76
2022/09/08 13:08:46;;;;;;;;;;;;;;;34.01;28.33;99909.56;5369963;32;34670;-89
2022/09/08 13:12:07;;;;;;;;;;;;;;;33.27;29.31;99903.78;5378361;32;44280;-88
2022/09/08 13:15:15;;;;;;;;;;;;;;;32.32;30.63;99905.41;5365678;32;33017;-91
2022/09/08 13:18:27;;;;;;;;;;;;;;;32.53;30.72;99904.34;5370870;32;44660;-88
2022/09/08 13:21:33;;;;;;;;;;;;;;;32.55;30.62;99897.62;5372204;32;34743;-86
2022/09/08 13:24:43;;;;;;;;;;;;;;;32.12;31.42;99894.56;5366219;32;34097;-82
2022/09/08 13:27:51;;;;;;;;;;;;;;;32.88;30.02;99883.91;5361368;32;34180;-86
2022/09/08 13:30:58;;;;;;;;;;;;;;;32.88;30.33;99881.19;5356900;32;45313;-88
2022/09/08 13:34:09;;;;;;;;;;;;;;;32.78;30.31;99878.09;5352966;32;33009;-81
2022/09/08 13:37:26;;;;;;;;;;;;;;;32.17;31.39;99867.59;5378680;32;32981;-75
2022/09/08 13:40:47;;;;;;;;;;;;;;;32.30;30.81;99867.56;5351814;32;34426;-78
2022/09/08 13:43:50;;;;;;;;;;;;;;;32.88;29.72;99859.41;5367854;32;44371;-88
2022/09/08 13:47:11;;;;;;;;;;;;;;;32.41;30.55;99855.22;5363196;32;33632;-87
2022/09/08 13:50:26;;;;;;;;;;;;;;;32.62;30.46;99859.53;5372433;32;35698;-74
2022/09/08 13:53:47;;;;;;;;;;;;;;;32.28;31.20;99864.22;5378551;32;33206;-83
2022/09/08 13:57:08;;;;;;;;;;;;;;;32.55;30.94;99859.56;5335944;32;43488;-74
2022/09/08 14:00:17;;;;;;;;;;;;;;;31.30;33.18;99878.69;5360391;32;33065;-87
2022/09/08 14:03:19;;;;;;;;;;;;;;;32.11;32.26;99857.56;5347263;32;44563;-75
2022/09/08 14:06:21;;;;;;;;;;;;;;;32.53;31.34;99844.53;5355316;32;33086;-77
2022/09/08 14:09:24;;;;;;;;;;;;;;;31.73;33.19;99854.69;5378829;32;33646;-72
2022/09/08 14:12:26;;;;;;;;;;;;;;;32.14;32.51;99842.72;5350553;32;36455;-72
2022/09/08 14:15:28;;;;;;;;;;;;;;;31.76;33.26;99843.41;5369531;32;33063;-80
2022/09/08 14:18:49;;;;;;;;;;;;;;;31.95;33.25;99845.28;5364744;32;33805;-73
2022/09/08 14:21:58;;;;;;;;;;;;;;;31.43;34.25;99846.09;5375618;32;47120;-72
2022/09/08 14:25:00;;;;;;;;;;;;;;;31.66;33.82;99832.94;5375326;32;33495;-78
2022/09/08 14:28:16;;;;;;;;;;;;;;;31.67;33.44;99829.19;5368540;32;33835;-79
2022/09/08 14:31:29;;;;;;;;;;;;;;;30.88;34.94;99818.25;5392509;32;48174;-73
2022/09/08 14:34:51;;;;;;;;;;;;;;;30.81;35.22;99823.66;5359253;32;33973;-79
2022/09/08 14:37:54;;;;;;;;;;;;;;;31.06;34.98;99813.09;5371703;32;45059;-73
2022/09/08 14:40:56;;;;;;;;;;;;;;;31.47;34.29;99818.34;5383858;32;33666;-78
2022/09/08 14:44:05;;;;;;;;;;;;;;;31.73;33.95;99803.06;5372376;32;33868;-70
2022/09/08 14:47:08;;;;;;;;;;;;;;;31.79;33.61;99807.69;5379979;32;32885;-72
2022/09/08 14:50:20;;;;;;;;;;;;;;;31.31;34.53;99817.94;5367902;32;34069;-77
2022/09/08 14:53:41;;;;;;;;;;;;;;;30.40;37.19;99827.25;5357313;32;45591;-78
2022/09/08 14:56:43;;;;;;;;;;;;;;;30.70;40.03;99830.50;5369733;32;33293;-78
2022/09/08 15:00:12;;;;;;;;;;;;;;;31.76;38.37;99833.37;5352674;32;34089;-72
2022/09/08 15:03:18;;;;;;;;;;;;;;;29.86;42.78;99846.94;5388389;32;34195;-73
2022/09/08 15:06:34;;;;;;;;;;;;;;;28.09;48.83;99852.06;5352901;32;46252;-78
2022/09/08 15:09:37;;;;;;;;;;;;;;;27.28;51.80;99865.25;5353234;32;33463;-73
2022/09/08 15:12:52;;;;;;;;;;;;;;;27.22;52.46;99865.97;5394463;32;33101;-78
2022/09/08 15:16:11;;;;;;;;;;;;;;;28.47;49.24;99875.28;5361582;32;45521;-79
2022/09/08 15:19:16;;;;;;;;;;;;;;;26.92;54.00;99870.34;5370730;32;33966;-74
2022/09/08 15:22:29;;;;;;;;;;;;;;;27.13;52.44;99889.47;5380718;32;45102;-73
2022/09/08 15:25:31;;;;;;;;;;;;;;;28.00;51.43;99884.53;5370513;32;33519;-78
2022/09/08 15:28:38;;;;;;;;;;;;;;;28.53;48.57;99889.88;5389523;32;34248;-79
2022/09/08 15:31:39;;;;;;;;;;;;;;;29.03;46.33;99889.06;5365371;32;33700;-76
2022/09/08 15:34:42;;;;;;;;;;;;;;;27.38;51.09;99895.53;5385202;32;32918;-72
2022/09/08 15:38:04;;;;;;;;;;;;;;;27.96;47.65;99883.25;5376560;32;33784;-77
2022/09/08 15:41:12;;;;;;;;;;;;;;;28.97;43.40;99873.59;5367018;32;33759;-77
2022/09/08 15:44:14;;;;;;;;;;;;;;;29.08;41.11;99883.06;5386882;32;33000;-74
2022/09/08 15:47:19;;;;;;;;;;;;;;;28.90;38.85;99869.09;5372232;32;33824;-72
2022/09/08 15:50:21;;;;;;;;;;;;;;;28.43;38.89;99873.97;5386075;32;44759;-80
2022/09/08 15:53:42;;;;;;;;;;;;;;;28.26;38.38;99867.88;5367225;32;33316;-73
2022/09/08 15:56:53;;;;;;;;;;;;;;;28.50;37.61;99882.16;5359290;32;34476;-77
2022/09/08 16:00:07;;;;;;;;;;;;;;;28.37;37.92;99880.09;5379692;32;43000;-76
2022/09/08 16:03:10;;;;;;;;;;;;;;;27.93;39.04;99875.50;5364417;32;33259;-78
2022/09/08 16:06:34;;;;;;;;;;;;;;;27.89;39.39;99874.22;5381756;32;32782;-72
2022/09/08 16:09:51;;;;;;;;;;;;;;;28.83;37.41;99863.63;5366269;32;33314;-77
2022/09/08 16:13:05;;;;;;;;;;;;;;;28.65;37.65;99874.00;5350093;32;45205;-71
2022/09/08 16:16:24;;;;;;;;;;;;;;;28.38;38.22;99870.97;5389388;32;33585;-71
2022/09/08 16:19:26;;;;;;;;;;;;;;;28.43;38.16;99871.25;5353002;32;44048;-78